x

Valley (03302) Weather Station

6:00pm - Fri 19th Jan 2018 All times are GMT.

  • Wind
    22mph, 33mph gusts
  • Air Temp 41°f
  • Sea Pressure 1006mb
  • Valley
  • Valley

More Historic Weather Station data

Upgrade to MSW Pro to gain access to the past 30 days of data for over 8000 Wavebouys and Weather Stations around the globe.

Join

Comparision Forecast

View Surf forecast
   
Fri 01/19 6:00pm 22 33 mph 1006mb 41f
5:00pm 19 31 mph 1006mb 41f
4:00pm 19 32 mph 1006mb 41f
3:00pm 19 31 mph 1006mb 41f
2:00pm 23 31 mph 1006mb 41f
1:00pm 21 30 mph 1006mb 41f
12:00pm 24 31 mph 1006mb 41f
11:00am 23 31 mph 1007mb 39f
10:00am 21 31 mph 1006mb 39f
9:00am 18
mph
1006mb 39f
8:00am 18
mph
1006mb 39f
7:00am 18
mph
1006mb 39f
6:00am 17
mph
1006mb 39f
5:00am 21 29 mph 1005mb 39f
4:00am 19 31 mph 1006mb 39f
3:00am 19 29 mph 1005mb 39f
2:00am 23 31 mph 1005mb 39f
1:00am 18 29 mph 1005mb 39f
12:00am 19 31 mph 1005mb 39f
Thu 01/18 11:00pm 18
mph
1005mb 39f
10:00pm 19
mph
1005mb 39f
9:00pm 18
mph
1005mb 41f
8:00pm 16
mph
1004mb 41f
7:00pm 19
mph
1004mb 41f
6:00pm 21 30 mph 1003mb 41f
5:00pm 19 32 mph 1002mb 41f
4:00pm 22 32 mph 1001mb 41f
3:00pm 16 32 mph 1001mb 41f
2:00pm 23 33 mph 1000mb 41f
1:00pm 18 29 mph 1000mb 43f
12:00pm 19 31 mph 1000mb 43f
11:00am 21 29 mph 1000mb 43f
10:00am 22 30 mph 999mb 43f
9:00am 18
mph
999mb 43f
8:00am 18
mph
999mb 41f
7:00am 16
mph
998mb 41f
6:00am 15 32 mph 997mb 41f
5:00am 23 38 mph 996mb 41f
4:00am 26 47 mph 995mb 41f
3:00am 34 68 mph 991mb 41f
2:00am 46 72 mph 986mb 48f
1:00am 36 52 mph 986mb 50f
12:00am 33 51 mph 986mb 50f
Wed 01/17 11:00pm 36 46 mph 987mb 48f
10:00pm 34 46 mph 989mb 46f
9:00pm 25 37 mph 994mb 41f
8:00pm 29 38 mph 998mb 41f
7:00pm 22 33 mph 1001mb 41f
6:00pm 23 34 mph 1003mb 43f
5:00pm 23 33 mph 1004mb 43f
4:00pm 22 33 mph 1005mb 43f
3:00pm 25 37 mph 1005mb 43f
2:00pm 24 39 mph 1005mb 45f
1:00pm 25 39 mph 1006mb 43f
12:00pm 28 40 mph 1006mb 43f
11:00am 30 40 mph 1005mb 43f
10:00am 26 41 mph 1005mb 41f
9:00am 25 44 mph 1004mb 41f
8:00am 25 43 mph 1003mb 39f
7:00am 28 44 mph 1002mb 39f
6:00am 32 45 mph 1001mb 39f
5:00am 29 47 mph 1000mb 39f
4:00am 31 53 mph 999mb 39f
3:00am 34 56 mph 997mb 39f
2:00am 33 51 mph 995mb 39f
1:00am 34 52 mph 994mb 37f
12:00am 34 51 mph 993mb 37f
Tue 01/16 11:00pm 31 41 mph 993mb 37f
10:00pm 31 46 mph 992mb 37f
9:00pm 30 49 mph 991mb 37f
8:00pm 31 41 mph 991mb 37f
7:00pm 31 43 mph 991mb 37f
6:00pm 30 44 mph 991mb 36f
5:00pm 31 43 mph 991mb 39f
4:00pm 28 41 mph 991mb 39f
3:00pm 29 45 mph 991mb 39f
2:00pm 32 44 mph 991mb 41f
1:00pm 30 45 mph 992mb 41f
12:00pm 31 43 mph 993mb 41f
11:00am 30 44 mph 993mb 41f
10:00am 29 41 mph 993mb 41f
9:00am 28 43 mph 993mb 39f
8:00am 30 45 mph 992mb 41f
7:00am 29 44 mph 992mb 41f
6:00am 29 40 mph 992mb 41f
5:00am 29 43 mph 991mb 41f
4:00am 29 41 mph 991mb 41f
3:00am 28 44 mph 991mb 41f
2:00am 28 43 mph 991mb 41f
1:00am 26 39 mph 991mb 41f
12:00am 26 39 mph 991mb 43f
Mon 01/15 11:00pm 22 39 mph 991mb 43f
10:00pm 30 40 mph 991mb 45f
9:00pm 26 37 mph 991mb 43f
8:00pm 25 37 mph 991mb 43f